createdAt,value
2023-07-01T00:00:11.637Z,98542.06
2023-07-01T00:00:44.069Z,98540.72
2023-07-01T00:01:16.209Z,98537.84
2023-07-01T00:01:48.246Z,98536.50
2023-07-01T00:02:20.667Z,98539.88
2023-07-01T00:02:54.338Z,98528.75
2023-07-01T00:03:31.616Z,98534.66
2023-07-01T00:04:04.178Z,98535.34
2023-07-01T00:04:36.438Z,98530.22
2023-07-01T00:05:09.415Z,98531.91
2023-07-01T00:05:41.697Z,98534.94
2023-07-01T00:06:13.689Z,98536.13
2023-07-01T00:06:45.675Z,98537.13
2023-07-01T00:07:17.754Z,98538.13
2023-07-01T00:07:49.739Z,98538.31
2023-07-01T00:08:21.688Z,98531.38
2023-07-01T00:08:54.823Z,98535.13
2023-07-01T00:09:26.831Z,98532.06
2023-07-01T00:09:58.787Z,98533.91
2023-07-01T00:10:30.813Z,98531.88
2023-07-01T00:11:02.867Z,98536.25
2023-07-01T00:11:34.788Z,98536.06
2023-07-01T00:12:06.914Z,98541.66
2023-07-01T00:12:38.882Z,98533.72
2023-07-01T00:13:10.822Z,98540.13
2023-07-01T00:13:42.745Z,98524.75
2023-07-01T00:14:14.685Z,98531.34
2023-07-01T00:14:46.629Z,98536.94
2023-07-01T00:15:18.827Z,98536.78
2023-07-01T00:15:50.846Z,98535.94
2023-07-01T00:16:22.825Z,98543.69
2023-07-01T00:16:56.133Z,98535.25
2023-07-01T00:17:28.133Z,98530.84
2023-07-01T00:18:00.274Z,98528.00
2023-07-01T00:18:32.778Z,98540.31
2023-07-01T00:19:04.794Z,98533.06
2023-07-01T00:19:36.710Z,98527.53
2023-07-01T00:20:09.181Z,98525.34
2023-07-01T00:20:41.090Z,98528.69
2023-07-01T00:21:13.190Z,98530.03
2023-07-01T00:21:45.142Z,98536.28
2023-07-01T00:22:17.102Z,98538.84
2023-07-01T00:22:49.298Z,98530.91
2023-07-01T00:23:21.706Z,98534.59
2023-07-01T00:23:53.670Z,98542.34
2023-07-01T00:24:25.644Z,98536.94
2023-07-01T00:24:57.598Z,98534.94
2023-07-01T00:25:29.676Z,98537.97
2023-07-01T00:26:03.016Z,98535.44
2023-07-01T00:26:34.957Z,98534.25
2023-07-01T00:27:07.330Z,98536.13
2023-07-01T00:27:39.598Z,98534.09
2023-07-01T00:28:11.713Z,98533.25
2023-07-01T00:28:43.609Z,98542.19
2023-07-01T00:29:16.356Z,98538.66
2023-07-01T00:29:48.323Z,98535.78
2023-07-01T00:30:20.295Z,98529.41
2023-07-01T00:30:52.295Z,98531.41
2023-07-01T00:31:24.470Z,98540.50
2023-07-01T00:31:56.544Z,98533.44
2023-07-01T00:32:28.543Z,98527.34
2023-07-01T00:33:02.058Z,98529.03
2023-07-01T00:33:34.170Z,98536.28
2023-07-01T00:34:06.217Z,98524.00
2023-07-01T00:34:38.180Z,98526.19
2023-07-01T00:35:10.125Z,98537.28
2023-07-01T00:35:42.223Z,98535.63
2023-07-01T00:36:14.268Z,98537.28
2023-07-01T00:36:46.734Z,98535.78
2023-07-01T00:37:18.639Z,98533.75
2023-07-01T00:37:50.564Z,98534.59
2023-07-01T00:38:22.552Z,98536.44
2023-07-01T00:38:54.510Z,98532.22
2023-07-01T00:39:26.443Z,98518.09
2023-07-01T00:39:58.354Z,98528.53
2023-07-01T00:40:30.524Z,98529.19
2023-07-01T00:41:02.698Z,98531.22
2023-07-01T00:41:34.643Z,98528.03
2023-07-01T00:42:06.761Z,98528.88
2023-07-01T00:42:39.901Z,98525.34
2023-07-01T00:43:11.865Z,98531.56
2023-07-01T00:43:46.340Z,98530.72
2023-07-01T00:44:18.301Z,98531.56
2023-07-01T00:44:50.269Z,98529.72
2023-07-01T00:45:22.291Z,98525.34
2023-07-01T00:45:55.452Z,98529.88
2023-07-01T00:46:27.539Z,98534.28
2023-07-01T00:47:00.396Z,98530.88
2023-07-01T00:47:32.400Z,98525.81
2023-07-01T00:48:04.529Z,98520.41
2023-07-01T00:48:40.743Z,98520.75
2023-07-01T00:49:12.656Z,98521.59
2023-07-01T00:49:45.244Z,98522.78
2023-07-01T00:50:17.506Z,98523.59
2023-07-01T00:50:50.375Z,98526.63
2023-07-01T00:51:22.635Z,98528.47
2023-07-01T00:51:55.239Z,98527.81
2023-07-01T00:52:27.356Z,98527.63
2023-07-01T00:53:00.240Z,98524.13
2023-07-01T00:53:32.193Z,98513.63
2023-07-01T00:54:04.281Z,98520.56
2023-07-01T00:54:37.025Z,98525.44
2023-07-01T00:55:11.319Z,98523.91
2023-07-01T00:55:43.334Z,98526.09
2023-07-01T00:56:15.274Z,98520.88
2023-07-01T00:56:47.458Z,98521.72
2023-07-01T00:57:19.391Z,98528.97
2023-07-01T00:57:51.323Z,98526.75
2023-07-01T00:58:23.303Z,98525.06
2023-07-01T00:58:55.345Z,98518.69
2023-07-01T00:59:27.359Z,98526.91
2023-07-01T00:59:59.316Z,98525.56
2023-07-01T01:00:31.547Z,98526.91
2023-07-01T01:01:13.465Z,98523.66
2023-07-01T01:01:49.481Z,98531.44
2023-07-01T01:02:38.571Z,98530.72
2023-07-01T01:03:16.445Z,98522.63
2023-07-01T01:04:23.514Z,98524.34
2023-07-01T01:05:11.629Z,98522.63
2023-07-01T01:05:51.282Z,98521.09
2023-07-01T01:06:42.816Z,98520.75
2023-07-01T01:07:38.885Z,98525.88
2023-07-01T01:08:22.396Z,98526.22
2023-07-01T01:09:04.636Z,98522.47
2023-07-01T01:09:47.168Z,98526.03
2023-07-01T01:10:26.599Z,98520.97
2023-07-01T01:11:02.421Z,98522.97
2023-07-01T01:11:35.560Z,98528.53
2023-07-01T01:12:12.076Z,98521.59
2023-07-01T01:12:46.404Z,98523.47
2023-07-01T01:13:20.783Z,98527.28
2023-07-01T01:13:54.453Z,98523.63
2023-07-01T01:14:29.315Z,98515.69
2023-07-01T01:15:03.281Z,98519.03
2023-07-01T01:15:35.681Z,98516.19
2023-07-01T01:16:08.066Z,98518.34
2023-07-01T01:16:42.881Z,98519.34
2023-07-01T01:17:16.512Z,98507.69
2023-07-01T01:17:54.243Z,98512.59
2023-07-01T01:18:32.290Z,98516.28
2023-07-01T01:19:20.950Z,98512.91
2023-07-01T01:19:56.061Z,98513.59
2023-07-01T01:20:32.398Z,98512.06
2023-07-01T01:21:07.143Z,98515.44
2023-07-01T01:21:40.309Z,98514.38
2023-07-01T01:22:42.984Z,98513.00
2023-07-01T01:23:26.426Z,98512.69
2023-07-01T01:24:02.263Z,98513.84
2023-07-01T01:24:39.439Z,98505.78
2023-07-01T01:25:19.764Z,98515.56
2023-07-01T01:26:03.608Z,98506.78
2023-07-01T01:26:41.833Z,98515.69
2023-07-01T01:27:19.121Z,98518.25
2023-07-01T01:27:54.246Z,98512.00
2023-07-01T01:28:26.563Z,98508.66
2023-07-01T01:28:58.942Z,98513.19
2023-07-01T01:29:30.958Z,98512.66
2023-07-01T01:30:02.974Z,98515.63
2023-07-01T01:30:35.373Z,98506.91
2023-07-01T01:31:10.193Z,98511.28
2023-07-01T01:31:42.170Z,98511.28
2023-07-01T01:32:14.107Z,98510.97
2023-07-01T01:32:46.061Z,98510.97
2023-07-01T01:33:18.323Z,98512.66
2023-07-01T01:33:50.297Z,98514.03
2023-07-01T01:34:22.252Z,98515.88
2023-07-01T01:34:54.156Z,98515.34
2023-07-01T01:35:26.242Z,98515.03
2023-07-01T01:36:11.773Z,98508.28
2023-07-01T01:36:55.386Z,98504.59
2023-07-01T01:38:08.435Z,98511.97
2023-07-01T01:38:42.380Z,98503.88
2023-07-01T01:39:21.747Z,98505.53
2023-07-01T01:40:00.950Z,98503.53
2023-07-01T01:40:45.653Z,98507.91
2023-07-01T01:41:24.329Z,98494.63
2023-07-01T01:42:03.788Z,98501.13
2023-07-01T01:42:38.837Z,98502.97
2023-07-01T01:43:27.846Z,98501.31
2023-07-01T01:44:12.725Z,98488.66
2023-07-01T01:44:53.026Z,98505.00
2023-07-01T01:45:25.189Z,98504.16
2023-07-01T01:45:58.804Z,98500.94
2023-07-01T01:46:32.815Z,98506.16
2023-07-01T01:47:07.109Z,98497.38
2023-07-01T01:47:40.154Z,98505.00
2023-07-01T01:48:14.237Z,98501.78
2023-07-01T01:48:46.217Z,98495.88
2023-07-01T01:49:19.035Z,98500.41
2023-07-01T01:49:57.220Z,98499.03
2023-07-01T01:50:30.360Z,98497.84
2023-07-01T01:51:05.373Z,98498.41
2023-07-01T01:51:40.587Z,98494.03
2023-07-01T01:52:17.981Z,98498.25
2023-07-01T01:52:53.002Z,98503.78
2023-07-01T01:53:28.868Z,98503.63
2023-07-01T01:54:04.898Z,98498.41
2023-07-01T01:54:37.030Z,98498.25
2023-07-01T01:55:11.747Z,98506.16
2023-07-01T01:55:45.142Z,98496.94
2023-07-01T01:56:17.640Z,98501.66
2023-07-01T01:56:50.249Z,98501.56
2023-07-01T01:57:22.774Z,98501.03
2023-07-01T01:57:54.912Z,98499.69
2023-07-01T01:58:27.731Z,98496.28
2023-07-01T01:59:01.136Z,98499.81
2023-07-01T01:59:34.369Z,98500.66
2023-07-01T02:00:09.745Z,98500.03
2023-07-01T02:00:42.182Z,98501.25
2023-07-01T02:01:16.582Z,98502.78
2023-07-01T02:01:48.603Z,98501.78
2023-07-01T02:02:20.750Z,98499.09
2023-07-01T02:02:52.907Z,98498.09
2023-07-01T02:03:25.199Z,98498.09
2023-07-01T02:03:58.234Z,98496.53
2023-07-01T02:04:30.682Z,98504.78
2023-07-01T02:05:02.930Z,98489.97
2023-07-01T02:05:34.975Z,98501.41
2023-07-01T02:06:07.008Z,98495.34
2023-07-01T02:06:39.019Z,98503.94
2023-07-01T02:07:11.002Z,98500.06
2023-07-01T02:07:43.056Z,98504.78
2023-07-01T02:08:15.025Z,98506.47
2023-07-01T02:08:47.393Z,98501.25
2023-07-01T02:09:19.585Z,98502.25
2023-07-01T02:09:51.505Z,98495.88
2023-07-01T02:10:23.460Z,98496.00
2023-07-01T02:10:55.390Z,98485.75
2023-07-01T02:11:27.419Z,98502.03
2023-07-01T02:11:59.762Z,98495.28
2023-07-01T02:12:31.907Z,98495.13
2023-07-01T02:13:04.053Z,98498.50
2023-07-01T02:13:36.079Z,98494.44
2023-07-01T02:14:08.023Z,98500.16
2023-07-01T02:14:40.004Z,98492.38
2023-07-01T02:15:12.205Z,98498.44
2023-07-01T02:15:44.115Z,98504.00
2023-07-01T02:16:16.222Z,98505.00
2023-07-01T02:16:48.475Z,98500.47
2023-07-01T02:17:20.538Z,98502.84
2023-07-01T02:17:54.283Z,98502.69
2023-07-01T02:18:26.487Z,98494.22
2023-07-01T02:18:58.643Z,98500.16
2023-07-01T02:19:30.579Z,98496.47
2023-07-01T02:20:02.530Z,98504.34
2023-07-01T02:20:34.455Z,98504.34
2023-07-01T02:21:08.052Z,98501.66
2023-07-01T02:21:40.000Z,98501.53
2023-07-01T02:22:12.092Z,98501.00
2023-07-01T02:22:44.021Z,98507.75
2023-07-01T02:23:16.088Z,98500.28
2023-07-01T02:23:48.044Z,98504.53
2023-07-01T02:24:19.984Z,98505.19
2023-07-01T02:24:52.007Z,98506.75
2023-07-01T02:25:23.991Z,98506.91
2023-07-01T02:25:56.026Z,98509.72
2023-07-01T02:26:28.096Z,98500.84
2023-07-01T02:27:00.797Z,98499.16
2023-07-01T02:27:32.851Z,98501.84
2023-07-01T02:28:04.931Z,98495.09
2023-07-01T02:28:36.844Z,98504.00
2023-07-01T02:29:09.870Z,98498.94
2023-07-01T02:29:41.837Z,98503.47
2023-07-01T02:30:14.082Z,98511.03
2023-07-01T02:30:46.749Z,98497.72
2023-07-01T02:31:19.914Z,98500.72
2023-07-01T02:31:52.029Z,98503.94
2023-07-01T02:32:24.009Z,98504.09
2023-07-01T02:32:56.219Z,98500.53
2023-07-01T02:33:28.345Z,98509.19
2023-07-01T02:34:04.370Z,98511.16
2023-07-01T02:34:36.274Z,98512.16
2023-07-01T02:35:08.689Z,98504.25
2023-07-01T02:35:40.643Z,98506.25
2023-07-01T02:36:12.640Z,98509.97
2023-07-01T02:36:44.696Z,98507.56
2023-07-01T02:37:16.668Z,98500.72
2023-07-01T02:37:48.652Z,98508.63
2023-07-01T02:38:20.574Z,98513.38
2023-07-01T02:38:52.500Z,98510.53
2023-07-01T02:39:24.487Z,98509.84
2023-07-01T02:39:56.453Z,98510.69
2023-07-01T02:40:29.025Z,98508.22
2023-07-01T02:41:00.944Z,98509.06
2023-07-01T02:41:32.915Z,98501.66
2023-07-01T02:42:04.998Z,98506.91
2023-07-01T02:42:36.942Z,98512.44
2023-07-01T02:43:08.862Z,98510.25
2023-07-01T02:43:40.775Z,98507.56
2023-07-01T02:44:12.801Z,98503.41
2023-07-01T02:44:44.701Z,98510.22
2023-07-01T02:45:16.716Z,98509.06
2023-07-01T02:45:48.722Z,98508.38
2023-07-01T02:46:20.818Z,98507.00
2023-07-01T02:46:53.814Z,98501.09
2023-07-01T02:47:25.789Z,98504.59
2023-07-01T02:47:57.740Z,98510.38
2023-07-01T02:48:29.689Z,98508.19
2023-07-01T02:49:01.649Z,98507.03
2023-07-01T02:49:33.658Z,98505.84
2023-07-01T02:50:06.498Z,98506.84
2023-07-01T02:50:38.521Z,98508.38
2023-07-01T02:51:10.471Z,98507.22
2023-07-01T02:51:42.646Z,98505.50
2023-07-01T02:52:14.660Z,98511.69
2023-07-01T02:52:46.576Z,98508.09
2023-07-01T02:53:21.406Z,98503.88
2023-07-01T02:53:53.336Z,98506.91
2023-07-01T02:54:25.324Z,98510.44
2023-07-01T02:54:57.221Z,98505.91
2023-07-01T02:55:32.238Z,98510.25
2023-07-01T02:56:04.442Z,98512.13
2023-07-01T02:56:36.413Z,98508.22
2023-07-01T02:57:11.940Z,98515.63
2023-07-01T02:57:43.930Z,98515.44
2023-07-01T02:58:15.960Z,98510.75
2023-07-01T02:58:47.907Z,98508.59
2023-07-01T02:59:19.925Z,98500.19
2023-07-01T02:59:51.907Z,98508.59
2023-07-01T03:00:24.140Z,98511.59
2023-07-01T03:00:56.297Z,98507.22
2023-07-01T03:01:28.276Z,98511.44
2023-07-01T03:02:00.317Z,98513.28
2023-07-01T03:02:32.305Z,98512.75
2023-07-01T03:03:07.909Z,98514.75
2023-07-01T03:03:40.125Z,98513.59
2023-07-01T03:04:20.885Z,98514.13
2023-07-01T03:04:53.478Z,98504.06
2023-07-01T03:05:25.857Z,98518.56
2023-07-01T03:05:57.855Z,98516.34
2023-07-01T03:06:29.756Z,98518.13
2023-07-01T03:07:02.334Z,98517.47
2023-07-01T03:07:34.324Z,98513.75
2023-07-01T03:08:07.172Z,98513.44
2023-07-01T03:08:39.101Z,98514.13
2023-07-01T03:09:11.974Z,98518.50
2023-07-01T03:09:43.905Z,98517.72
2023-07-01T03:10:16.015Z,98513.72
2023-07-01T03:10:48.217Z,98515.91
2023-07-01T03:11:20.448Z,98519.81
2023-07-01T03:11:53.440Z,98521.84
2023-07-01T03:12:25.394Z,98514.59
2023-07-01T03:12:57.517Z,98507.34
2023-07-01T03:13:29.463Z,98508.72
2023-07-01T03:14:01.401Z,98512.97
2023-07-01T03:14:33.334Z,98503.81
2023-07-01T03:15:05.664Z,98511.75
2023-07-01T03:15:37.676Z,98511.94
2023-07-01T03:16:10.936Z,98510.47
2023-07-01T03:16:43.312Z,98508.44
2023-07-01T03:17:15.376Z,98516.44
2023-07-01T03:17:48.813Z,98512.56
2023-07-01T03:18:20.768Z,98505.31
2023-07-01T03:18:52.712Z,98525.69
2023-07-01T03:19:24.618Z,98517.63
2023-07-01T03:19:56.527Z,98522.00
2023-07-01T03:20:28.445Z,98518.84
2023-07-01T03:21:02.155Z,98523.53
2023-07-01T03:21:35.281Z,98519.84
2023-07-01T03:22:07.158Z,98514.13
2023-07-01T03:22:39.063Z,98510.25
2023-07-01T03:23:11.665Z,98506.03
2023-07-01T03:23:43.598Z,98520.06
2023-07-01T03:24:15.647Z,98514.53
2023-07-01T03:24:47.596Z,98515.50
2023-07-01T03:25:19.819Z,98511.09
2023-07-01T03:25:51.701Z,98514.34
2023-07-01T03:26:23.740Z,98517.88
2023-07-01T03:26:55.758Z,98515.19
2023-07-01T03:27:27.734Z,98522.41
2023-07-01T03:27:59.646Z,98508.28
2023-07-01T03:28:31.603Z,98502.34
2023-07-01T03:29:03.865Z,98515.38
2023-07-01T03:29:35.811Z,98516.19
2023-07-01T03:30:14.818Z,98524.13
2023-07-01T03:30:47.250Z,98515.38
2023-07-01T03:31:19.385Z,98524.44
2023-07-01T03:31:51.390Z,98523.25
2023-07-01T03:32:23.442Z,98519.25
2023-07-01T03:32:55.970Z,98521.59
2023-07-01T03:33:27.993Z,98522.63
2023-07-01T03:34:00.240Z,98519.09
2023-07-01T03:34:32.251Z,98519.75
2023-07-01T03:35:04.544Z,98519.13
2023-07-01T03:35:36.457Z,98516.09
2023-07-01T03:36:08.593Z,98514.94
2023-07-01T03:36:41.371Z,98520.31
2023-07-01T03:37:13.677Z,98523.00
2023-07-01T03:37:46.709Z,98524.00
2023-07-01T03:38:18.652Z,98523.00
2023-07-01T03:38:50.653Z,98518.47
2023-07-01T03:39:22.602Z,98523.00
2023-07-01T03:39:54.569Z,98520.97
2023-07-01T03:40:26.490Z,98525.88
2023-07-01T03:40:58.437Z,98515.81
2023-07-01T03:41:30.433Z,98518.66
2023-07-01T03:42:02.662Z,98509.19
2023-07-01T03:42:34.713Z,98510.38
2023-07-01T03:43:06.699Z,98520.31
2023-07-01T03:43:38.636Z,98512.91
2023-07-01T03:44:10.586Z,98517.81
2023-07-01T03:44:42.499Z,98511.41
2023-07-01T03:45:14.978Z,98512.06
2023-07-01T03:45:47.072Z,98515.63
2023-07-01T03:46:19.161Z,98517.81
2023-07-01T03:46:51.112Z,98514.44
2023-07-01T03:47:24.199Z,98509.19
2023-07-01T03:47:56.277Z,98516.81
2023-07-01T03:48:28.936Z,98520.84
2023-07-01T03:49:00.913Z,98521.81
2023-07-01T03:49:32.926Z,98523.38
2023-07-01T03:50:05.654Z,98515.09
2023-07-01T03:50:37.642Z,98509.72
2023-07-01T03:51:09.917Z,98504.19
2023-07-01T03:51:43.276Z,98512.78
2023-07-01T03:52:15.302Z,98515.84
2023-07-01T03:52:47.233Z,98517.16
2023-07-01T03:53:19.259Z,98513.25
2023-07-01T03:53:53.031Z,98514.78
2023-07-01T03:54:25.030Z,98507.38
2023-07-01T03:54:58.279Z,98510.44
2023-07-01T03:55:30.248Z,98505.03
2023-07-01T03:56:02.169Z,98510.28
2023-07-01T03:56:34.182Z,98505.22
2023-07-01T03:57:06.396Z,98512.47
2023-07-01T03:57:38.759Z,98504.22
2023-07-01T03:58:10.922Z,98509.59
2023-07-01T03:58:42.858Z,98509.94
2023-07-01T03:59:14.746Z,98511.59
2023-07-01T03:59:46.701Z,98502.53
2023-07-01T04:00:19.466Z,98509.63
2023-07-01T04:00:53.678Z,98503.03
2023-07-01T04:01:26.113Z,98505.75
2023-07-01T04:01:58.655Z,98500.03
2023-07-01T04:02:30.633Z,98506.94
2023-07-01T04:03:10.503Z,98499.69
2023-07-01T04:03:42.788Z,98510.84
2023-07-01T04:04:14.994Z,98499.00
2023-07-01T04:04:47.101Z,98514.34
2023-07-01T04:05:19.926Z,98508.16
2023-07-01T04:05:52.730Z,98503.25
2023-07-01T04:06:24.738Z,98508.31
2023-07-01T04:06:58.428Z,98511.00
2023-07-01T04:07:30.339Z,98514.03
2023-07-01T04:08:03.326Z,98511.88
2023-07-01T04:08:35.266Z,98516.78
2023-07-01T04:09:13.774Z,98517.28
2023-07-01T04:09:46.169Z,98509.69
2023-07-01T04:10:18.135Z,98510.03
2023-07-01T04:10:50.052Z,98518.47
2023-07-01T04:11:23.259Z,98507.34
2023-07-01T04:11:55.379Z,98508.00
2023-07-01T04:12:27.493Z,98506.16
2023-07-01T04:13:01.418Z,98517.44
2023-07-01T04:13:34.438Z,98516.09
2023-07-01T04:14:06.439Z,98515.94
2023-07-01T04:14:38.368Z,98513.41
2023-07-01T04:15:13.579Z,98519.31
2023-07-01T04:15:45.543Z,98517.97
2023-07-01T04:16:17.580Z,98509.53
2023-07-01T04:16:51.985Z,98515.94
2023-07-01T04:17:24.097Z,98516.13
2023-07-01T04:17:56.079Z,98512.06
2023-07-01T04:18:28.152Z,98513.06
2023-07-01T04:19:00.917Z,98512.69
2023-07-01T04:19:32.844Z,98511.50
2023-07-01T04:20:07.439Z,98507.28
2023-07-01T04:20:41.318Z,98513.38
2023-07-01T04:21:13.233Z,98511.00
2023-07-01T04:21:45.164Z,98508.97
2023-07-01T04:22:17.131Z,98505.94
2023-07-01T04:22:49.716Z,98509.88
2023-07-01T04:23:21.612Z,98507.53
2023-07-01T04:23:53.612Z,98505.47
2023-07-01T04:24:25.602Z,98511.53
2023-07-01T04:24:57.540Z,98514.06
2023-07-01T04:25:29.455Z,98504.78
2023-07-01T04:26:01.501Z,98510.19
2023-07-01T04:26:33.423Z,98505.97
2023-07-01T04:27:05.540Z,98505.47
2023-07-01T04:27:37.706Z,98506.84
2023-07-01T04:28:09.771Z,98506.34
2023-07-01T04:28:41.838Z,98508.19
2023-07-01T04:29:14.189Z,98504.78
2023-07-01T04:29:46.175Z,98500.59
2023-07-01T04:30:18.275Z,98501.59
2023-07-01T04:30:50.532Z,98502.75
2023-07-01T04:31:23.211Z,98504.09
2023-07-01T04:31:55.132Z,98500.59
2023-07-01T04:32:27.043Z,98500.41
2023-07-01T04:32:59.202Z,98506.78
2023-07-01T04:33:31.229Z,98499.69
2023-07-01T04:34:03.364Z,98509.16
2023-07-01T04:34:35.520Z,98506.78
2023-07-01T04:35:07.915Z,98510.00
2023-07-01T04:35:40.197Z,98503.09
2023-07-01T04:36:12.157Z,98507.97
2023-07-01T04:36:44.046Z,98495.13
2023-07-01T04:37:16.085Z,98500.69
2023-07-01T04:37:48.265Z,98497.81
2023-07-01T04:38:20.159Z,98497.66
2023-07-01T04:38:52.115Z,98496.47
2023-07-01T04:39:25.091Z,98501.16
2023-07-01T04:39:57.524Z,98507.75
2023-07-01T04:40:29.455Z,98508.25
2023-07-01T04:41:02.712Z,98505.88
2023-07-01T04:41:34.717Z,98499.97
2023-07-01T04:42:06.826Z,98502.16
2023-07-01T04:42:45.644Z,98503.00
2023-07-01T04:43:17.592Z,98498.09
2023-07-01T04:43:49.620Z,98494.69
2023-07-01T04:44:25.382Z,98501.78
2023-07-01T04:44:57.530Z,98505.16
2023-07-01T04:45:34.587Z,98494.34
2023-07-01T04:46:06.518Z,98501.41
2023-07-01T04:46:38.417Z,98498.34
2023-07-01T04:47:10.490Z,98493.81
2023-07-01T04:47:42.518Z,98498.41
2023-07-01T04:48:14.521Z,98497.38
2023-07-01T04:48:46.706Z,98494.50
2023-07-01T04:49:18.707Z,98495.34
2023-07-01T04:49:54.357Z,98495.00
2023-07-01T04:50:26.438Z,98488.19
2023-07-01T04:50:58.854Z,98493.25
2023-07-01T04:51:30.854Z,98492.53
2023-07-01T04:52:02.972Z,98490.78
2023-07-01T04:52:35.041Z,98494.34
2023-07-01T04:53:06.981Z,98496.69
2023-07-01T04:53:40.208Z,98482.03
2023-07-01T04:54:12.241Z,98487.09
2023-07-01T04:54:44.226Z,98483.97
2023-07-01T04:55:16.567Z,98487.84
2023-07-01T04:55:49.168Z,98483.63
2023-07-01T04:56:25.139Z,98494.59
2023-07-01T04:56:57.159Z,98480.34
2023-07-01T04:57:29.096Z,98482.34
2023-07-01T04:58:01.079Z,98484.34
2023-07-01T04:58:33.086Z,98487.69
2023-07-01T04:59:05.043Z,98490.03
2023-07-01T04:59:37.949Z,98489.50
2023-07-01T05:00:11.884Z,98484.78
2023-07-01T05:00:44.079Z,98492.53
2023-07-01T05:01:16.343Z,98487.75
2023-07-01T05:01:48.357Z,98491.78
2023-07-01T05:02:20.516Z,98487.53
2023-07-01T05:02:52.702Z,98486.16
2023-07-01T05:03:25.115Z,98490.34
2023-07-01T05:03:57.341Z,98489.50
2023-07-01T05:04:29.818Z,98486.63
2023-07-01T05:05:02.191Z,98489.81
2023-07-01T05:05:34.461Z,98494.66
2023-07-01T05:06:07.071Z,98488.59
2023-07-01T05:06:48.993Z,98490.81
2023-07-01T05:07:20.877Z,98486.31
2023-07-01T05:07:52.904Z,98480.72
2023-07-01T05:08:24.989Z,98480.38
2023-07-01T05:08:57.076Z,98483.72
2023-07-01T05:09:29.169Z,98484.94
2023-07-01T05:10:01.156Z,98485.41
2023-07-01T05:10:33.158Z,98483.00
2023-07-01T05:11:05.214Z,98483.81
2023-07-01T05:11:37.416Z,98492.31
2023-07-01T05:12:09.715Z,98486.91
2023-07-01T05:12:41.865Z,98489.13
2023-07-01T05:13:14.107Z,98491.84
2023-07-01T05:13:46.310Z,98488.47
2023-07-01T05:14:20.923Z,98488.97
2023-07-01T05:14:53.199Z,98491.84
2023-07-01T05:15:25.277Z,98489.50
2023-07-01T05:15:57.682Z,98485.56
2023-07-01T05:16:29.667Z,98485.78
2023-07-01T05:17:01.657Z,98482.94
2023-07-01T05:17:33.625Z,98490.78
2023-07-01T05:18:05.696Z,98494.50
2023-07-01T05:18:37.680Z,98494.19
2023-07-01T05:19:10.286Z,98487.13
2023-07-01T05:19:42.927Z,98490.34
2023-07-01T05:20:19.255Z,98486.25
2023-07-01T05:20:52.455Z,98488.44
2023-07-01T05:21:25.512Z,98483.78
2023-07-01T05:21:57.472Z,98494.91
2023-07-01T05:22:29.470Z,98494.06
2023-07-01T05:23:01.445Z,98491.84
2023-07-01T05:23:33.598Z,98490.25
2023-07-01T05:24:05.763Z,98494.59
2023-07-01T05:24:37.763Z,98493.13
2023-07-01T05:25:09.836Z,98498.16
2023-07-01T05:25:43.824Z,98495.94
2023-07-01T05:26:15.791Z,98490.72
2023-07-01T05:26:52.218Z,98490.03
2023-07-01T05:27:24.203Z,98493.97
2023-07-01T05:27:59.152Z,98490.78
2023-07-01T05:28:31.346Z,98486.31
2023-07-01T05:29:03.473Z,98493.53
2023-07-01T05:29:35.515Z,98497.75
2023-07-01T05:30:08.287Z,98496.72
2023-07-01T05:30:40.393Z,98494.00
2023-07-01T05:31:12.506Z,98494.66
2023-07-01T05:31:44.555Z,98490.47
2023-07-01T05:32:16.684Z,98491.69
2023-07-01T05:32:48.691Z,98491.72
2023-07-01T05:33:20.852Z,98490.03
2023-07-01T05:33:52.820Z,98497.16
2023-07-01T05:34:25.455Z,98501.66
2023-07-01T05:34:57.772Z,98491.56
2023-07-01T05:35:29.723Z,98489.34
2023-07-01T05:36:02.056Z,98495.22
2023-07-01T05:36:34.258Z,98496.34
2023-07-01T05:37:06.584Z,98500.22
2023-07-01T05:37:38.666Z,98501.53
2023-07-01T05:38:12.378Z,98507.19
2023-07-01T05:38:44.467Z,98500.38
2023-07-01T05:39:17.042Z,98505.25
2023-07-01T05:39:52.026Z,98496.41
2023-07-01T05:40:24.117Z,98503.50
2023-07-01T05:40:56.044Z,98499.47
2023-07-01T05:41:28.006Z,98498.16
2023-07-01T05:42:00.009Z,98505.19
2023-07-01T05:42:32.791Z,98507.72
2023-07-01T05:43:05.291Z,98507.16
2023-07-01T05:43:39.603Z,98493.47
2023-07-01T05:44:12.645Z,98499.16
2023-07-01T05:44:44.663Z,98501.78
2023-07-01T05:45:16.711Z,98496.09
2023-07-01T05:45:48.978Z,98503.19
2023-07-01T05:46:21.068Z,98500.59
2023-07-01T05:46:53.973Z,98503.41
2023-07-01T05:47:26.156Z,98497.47
2023-07-01T05:47:58.909Z,98499.63
2023-07-01T05:48:30.992Z,98497.75
2023-07-01T05:49:03.085Z,98501.94
2023-07-01T05:49:35.069Z,98497.50
2023-07-01T05:50:07.412Z,98490.19
2023-07-01T05:50:43.045Z,98502.06
2023-07-01T05:51:15.378Z,98493.19
2023-07-01T05:51:47.705Z,98488.91
2023-07-01T05:52:19.973Z,98497.13
2023-07-01T05:52:52.166Z,98499.53
2023-07-01T05:53:24.438Z,98492.72
2023-07-01T05:53:56.804Z,98493.50
2023-07-01T05:54:29.241Z,98492.00
2023-07-01T05:55:33.762Z,98494.69
2023-07-01T05:56:05.684Z,98485.50
2023-07-01T05:56:40.435Z,98489.06
2023-07-01T05:57:12.672Z,98480.03
2023-07-01T05:57:44.722Z,98490.13
2023-07-01T05:58:17.069Z,98488.97
2023-07-01T05:58:49.012Z,98483.25
2023-07-01T05:59:21.071Z,98484.78
2023-07-01T05:59:52.946Z,98475.91
2023-07-01T06:00:24.982Z,98490.44
2023-07-01T06:00:56.883Z,98487.63
2023-07-01T06:01:30.305Z,98478.75
2023-07-01T06:02:02.485Z,98473.63
2023-07-01T06:02:34.673Z,98483.63
2023-07-01T06:03:06.681Z,98475.47
2023-07-01T06:03:38.698Z,98480.91
2023-07-01T06:04:11.003Z,98479.47
2023-07-01T06:04:44.001Z,98477.28
2023-07-01T06:05:16.179Z,98473.22
2023-07-01T06:05:48.373Z,98477.41
2023-07-01T06:06:22.887Z,98476.72
2023-07-01T06:06:54.811Z,98470.63
2023-07-01T06:07:26.875Z,98475.31
2023-07-01T06:07:59.104Z,98472.38
2023-07-01T06:08:31.195Z,98478.47
2023-07-01T06:09:03.758Z,98471.94
2023-07-01T06:09:35.769Z,98474.66
2023-07-01T06:10:08.082Z,98474.47
2023-07-01T06:10:40.047Z,98476.38
2023-07-01T06:11:11.920Z,98482.09
2023-07-01T06:11:43.890Z,98482.31
2023-07-01T06:12:16.686Z,98476.69
2023-07-01T06:12:48.743Z,98468.06
2023-07-01T06:13:21.148Z,98481.81
2023-07-01T06:13:54.529Z,98481.44
2023-07-01T06:14:27.344Z,98479.88
2023-07-01T06:14:59.309Z,98483.88
2023-07-01T06:15:31.422Z,98485.78
2023-07-01T06:16:03.482Z,98487.66
2023-07-01T06:16:35.609Z,98480.34
2023-07-01T06:17:07.643Z,98480.75
2023-07-01T06:17:39.807Z,98486.63
2023-07-01T06:18:15.142Z,98488.50
2023-07-01T06:18:47.279Z,98489.03
2023-07-01T06:19:19.246Z,98482.41
2023-07-01T06:19:51.250Z,98477.78
2023-07-01T06:20:23.179Z,98482.00
2023-07-01T06:20:56.075Z,98480.13
2023-07-01T06:21:28.095Z,98483.03
2023-07-01T06:22:00.123Z,98480.97
2023-07-01T06:22:32.256Z,98483.88
2023-07-01T06:23:04.236Z,98482.44
2023-07-01T06:23:39.361Z,98490.00
2023-07-01T06:24:12.097Z,98485.16
2023-07-01T06:24:44.112Z,98485.59
2023-07-01T06:25:16.516Z,98490.00
2023-07-01T06:25:48.415Z,98487.75
2023-07-01T06:26:20.922Z,98487.94
2023-07-01T06:26:53.027Z,98482.31
2023-07-01T06:27:24.929Z,98482.69
2023-07-01T06:27:56.995Z,98484.38
2023-07-01T06:28:28.927Z,98486.19
2023-07-01T06:29:04.415Z,98490.25
2023-07-01T06:29:36.432Z,98486.94